sensor_id;sensor_type;location;lat;lon;timestamp;pressure;altitude;pressure_sealevel;temperature;humidity
31096;BME280;17749;51.962;8.560;2023-07-16T05:05:46;99616.34;;;17.82;100.00
31096;BME280;17749;51.962;8.560;2023-07-16T05:08:13;99604.50;;;17.85;100.00
31096;BME280;17749;51.962;8.560;2023-07-16T05:10:39;99612.44;;;17.86;100.00
31096;BME280;17749;51.962;8.560;2023-07-16T05:13:06;99614.91;;;17.89;100.00
31096;BME280;17749;51.962;8.560;2023-07-16T05:15:33;99618.81;;;17.96;100.00
31096;BME280;17749;51.962;8.560;2023-07-16T05:18:00;99619.81;;;17.95;100.00
31096;BME280;17749;51.962;8.560;2023-07-16T05:20:27;99623.75;;;18.03;100.00
31096;BME280;17749;51.962;8.560;2023-07-16T05:22:54;99634.53;;;18.03;100.00
31096;BME280;17749;51.962;8.560;2023-07-16T05:25:21;99630.59;;;18.07;100.00
31096;BME280;17749;51.962;8.560;2023-07-16T05:27:47;99630.47;;;18.08;100.00
31096;BME280;17749;51.962;8.560;2023-07-16T05:30:14;99640.16;;;18.11;100.00
31096;BME280;17749;51.962;8.560;2023-07-16T05:32:42;99644.94;;;18.18;100.00
31096;BME280;17749;51.962;8.560;2023-07-16T05:35:09;99638.44;;;18.21;100.00
31096;BME280;17749;51.962;8.560;2023-07-16T05:37:35;99655.81;;;18.28;100.00
31096;BME280;17749;51.962;8.560;2023-07-16T05:40:03;99647.78;;;18.39;100.00
31096;BME280;17749;51.962;8.560;2023-07-16T05:42:30;99652.91;;;18.54;100.00
31096;BME280;17749;51.962;8.560;2023-07-16T05:44:56;99656.81;;;18.61;100.00
31096;BME280;17749;51.962;8.560;2023-07-16T05:47:23;99662.19;;;18.72;100.00
31096;BME280;17749;51.962;8.560;2023-07-16T05:49:50;99658.91;;;18.80;100.00
31096;BME280;17749;51.962;8.560;2023-07-16T05:52:17;99664.53;;;18.88;100.00
31096;BME280;17749;51.962;8.560;2023-07-16T05:54:44;99662.94;;;18.97;100.00
31096;BME280;17749;51.962;8.560;2023-07-16T05:57:11;99658.00;;;19.13;100.00
31096;BME280;17749;51.962;8.560;2023-07-16T05:59:38;99668.38;;;19.29;100.00
31096;BME280;17749;51.962;8.560;2023-07-16T06:02:05;99667.13;;;19.33;100.00
31096;BME280;17749;51.962;8.560;2023-07-16T06:04:32;99664.78;;;19.40;100.00
31096;BME280;17749;51.962;8.560;2023-07-16T06:06:59;99674.03;;;19.58;100.00
31096;BME280;17749;51.962;8.560;2023-07-16T06:09:26;99676.69;;;19.69;100.00
31096;BME280;17749;51.962;8.560;2023-07-16T06:11:53;99681.66;;;19.85;100.00
31096;BME280;17749;51.962;8.560;2023-07-16T06:14:20;99683.78;;;20.03;100.00
31096;BME280;17749;51.962;8.560;2023-07-16T06:16:47;99684.53;;;20.14;100.00
31096;BME280;17749;51.962;8.560;2023-07-16T06:19:14;99686.78;;;20.30;100.00
31096;BME280;17749;51.962;8.560;2023-07-16T06:21:41;99695.13;;;20.48;100.00
31096;BME280;17749;51.962;8.560;2023-07-16T06:26:58;99692.06;;;20.93;100.00
31096;BME280;17749;51.962;8.560;2023-07-16T06:29:26;99703.06;;;21.01;100.00
31096;BME280;17749;51.962;8.560;2023-07-16T06:31:56;99703.06;;;21.01;100.00
31096;BME280;17749;51.962;8.560;2023-07-16T06:34:24;99701.94;;;21.14;100.00
31096;BME280;17749;51.962;8.560;2023-07-16T06:36:52;99698.66;;;21.10;100.00
31096;BME280;17749;51.962;8.560;2023-07-16T06:39:19;99698.53;;;21.12;100.00
31096;BME280;17749;51.962;8.560;2023-07-16T06:41:46;99701.72;;;21.36;100.00
31096;BME280;17749;51.962;8.560;2023-07-16T06:44:13;99699.75;;;21.58;100.00
31096;BME280;17749;51.962;8.560;2023-07-16T06:46:40;99697.19;;;21.85;100.00
31096;BME280;17749;51.962;8.560;2023-07-16T06:49:07;99699.31;;;22.01;100.00
31096;BME280;17749;51.962;8.560;2023-07-16T06:51:34;99708.03;;;22.24;100.00
31096;BME280;17749;51.962;8.560;2023-07-16T06:54:03;99713.78;;;22.59;100.00
31096;BME280;17749;51.962;8.560;2023-07-16T06:56:30;99707.63;;;22.66;100.00
31096;BME280;17749;51.962;8.560;2023-07-16T06:58:57;99710.78;;;22.62;100.00
31096;BME280;17749;51.962;8.560;2023-07-16T07:01:24;99719.66;;;22.54;100.00
31096;BME280;17749;51.962;8.560;2023-07-16T07:03:51;99720.19;;;22.58;100.00
31096;BME280;17749;51.962;8.560;2023-07-16T07:06:18;99721.94;;;22.59;100.00
31096;BME280;17749;51.962;8.560;2023-07-16T07:08:45;99715.50;;;22.50;100.00
31096;BME280;17749;51.962;8.560;2023-07-16T07:11:12;99734.28;;;22.14;100.00
31096;BME280;17749;51.962;8.560;2023-07-16T07:13:39;99732.56;;;22.03;100.00
31096;BME280;17749;51.962;8.560;2023-07-16T07:16:05;99732.28;;;21.87;100.00
31096;BME280;17749;51.962;8.560;2023-07-16T07:18:33;99732.88;;;21.91;100.00
31096;BME280;17749;51.962;8.560;2023-07-16T07:20:59;99734.56;;;22.30;100.00
31096;BME280;17749;51.962;8.560;2023-07-16T07:23:26;99737.38;;;22.48;100.00
31096;BME280;17749;51.962;8.560;2023-07-16T07:25:53;99736.34;;;22.59;98.74
31096;BME280;17749;51.962;8.560;2023-07-16T07:28:20;99741.56;;;22.70;96.35
31096;BME280;17749;51.962;8.560;2023-07-16T07:30:47;99731.91;;;22.58;97.89
31096;BME280;17749;51.962;8.560;2023-07-16T07:33:14;99738.94;;;22.98;98.65
31096;BME280;17749;51.962;8.560;2023-07-16T07:35:41;99740.94;;;23.24;97.75
31096;BME280;17749;51.962;8.560;2023-07-16T07:38:08;99729.88;;;23.35;96.19
31096;BME280;17749;51.962;8.560;2023-07-16T07:40:35;99734.91;;;23.30;93.17
31096;BME280;17749;51.962;8.560;2023-07-16T07:43:02;99739.19;;;23.05;93.18
31096;BME280;17749;51.962;8.560;2023-07-16T07:45:29;99744.91;;;22.92;95.18
31096;BME280;17749;51.962;8.560;2023-07-16T07:47:56;99737.50;;;22.84;95.85
31096;BME280;17749;51.962;8.560;2023-07-16T07:50:23;99732.91;;;22.57;95.34
31096;BME280;17749;51.962;8.560;2023-07-16T07:52:52;99733.56;;;22.12;95.13
31096;BME280;17749;51.962;8.560;2023-07-16T07:55:19;99734.81;;;22.08;96.31
31096;BME280;17749;51.962;8.560;2023-07-16T07:57:46;99743.72;;;21.91;95.18
31096;BME280;17749;51.962;8.560;2023-07-16T08:00:13;99746.41;;;21.91;97.33
31096;BME280;17749;51.962;8.560;2023-07-16T08:02:40;99741.41;;;21.86;99.06
31096;BME280;17749;51.962;8.560;2023-07-16T08:05:08;99749.41;;;21.97;98.51
31096;BME280;17749;51.962;8.560;2023-07-16T08:07:35;99739.97;;;22.11;98.82
31096;BME280;17749;51.962;8.560;2023-07-16T08:10:02;99747.94;;;22.42;97.72
31096;BME280;17749;51.962;8.560;2023-07-16T08:12:29;99745.22;;;22.89;98.21
31096;BME280;17749;51.962;8.560;2023-07-16T08:14:57;99749.28;;;23.40;96.43
31096;BME280;17749;51.962;8.560;2023-07-16T08:17:25;99732.19;;;23.30;92.94
31096;BME280;17749;51.962;8.560;2023-07-16T08:19:52;99748.66;;;23.01;92.50
31096;BME280;17749;51.962;8.560;2023-07-16T08:22:19;99742.19;;;22.64;91.97
31096;BME280;17749;51.962;8.560;2023-07-16T08:24:46;99743.66;;;22.49;92.25
31096;BME280;17749;51.962;8.560;2023-07-16T08:27:13;99742.13;;;22.74;92.96
31096;BME280;17749;51.962;8.560;2023-07-16T08:29:40;99754.00;;;23.10;89.41
31096;BME280;17749;51.962;8.560;2023-07-16T08:32:07;99762.38;;;23.27;89.48
31096;BME280;17749;51.962;8.560;2023-07-16T08:34:34;99754.09;;;23.46;89.23
31096;BME280;17749;51.962;8.560;2023-07-16T08:37:02;99764.22;;;23.54;87.70
31096;BME280;17749;51.962;8.560;2023-07-16T08:39:30;99757.75;;;23.82;87.90
31096;BME280;17749;51.962;8.560;2023-07-16T08:41:57;99770.09;;;23.77;87.05
31096;BME280;17749;51.962;8.560;2023-07-16T08:44:24;99777.03;;;23.61;88.05
31096;BME280;17749;51.962;8.560;2023-07-16T08:46:51;99778.97;;;23.51;87.27
31096;BME280;17749;51.962;8.560;2023-07-16T08:49:19;99780.38;;;23.55;88.78
31096;BME280;17749;51.962;8.560;2023-07-16T08:51:48;99780.38;;;23.28;85.79
31096;BME280;17749;51.962;8.560;2023-07-16T08:54:16;99785.41;;;23.23;89.10
31096;BME280;17749;51.962;8.560;2023-07-16T08:56:44;99787.09;;;23.24;86.05
31096;BME280;17749;51.962;8.560;2023-07-16T08:59:11;99791.22;;;23.00;85.59
31096;BME280;17749;51.962;8.560;2023-07-16T09:01:38;99787.91;;;23.06;87.59
31096;BME280;17749;51.962;8.560;2023-07-16T09:04:06;99788.78;;;22.97;88.00
31096;BME280;17749;51.962;8.560;2023-07-16T09:06:33;99794.50;;;23.04;87.55
31096;BME280;17749;51.962;8.560;2023-07-16T09:09:00;99794.38;;;22.86;86.44
31096;BME280;17749;51.962;8.560;2023-07-16T09:11:27;99787.72;;;23.17;87.73
31096;BME280;17749;51.962;8.560;2023-07-16T09:13:54;99791.44;;;23.44;85.67
31096;BME280;17749;51.962;8.560;2023-07-16T09:16:21;99786.56;;;23.66;85.51
31096;BME280;17749;51.962;8.560;2023-07-16T09:18:48;99790.94;;;23.58;84.73
31096;BME280;17749;51.962;8.560;2023-07-16T09:21:16;99791.03;;;23.39;85.61
31096;BME280;17749;51.962;8.560;2023-07-16T09:23:44;99810.84;;;23.49;85.40
31096;BME280;17749;51.962;8.560;2023-07-16T09:26:11;99811.75;;;23.68;85.95
31096;BME280;17749;51.962;8.560;2023-07-16T09:28:38;99799.69;;;23.80;84.20
31096;BME280;17749;51.962;8.560;2023-07-16T09:31:06;99796.28;;;24.14;84.59
31096;BME280;17749;51.962;8.560;2023-07-16T09:33:33;99789.72;;;24.42;81.74
31096;BME280;17749;51.962;8.560;2023-07-16T09:36:01;99803.25;;;24.78;81.51
31096;BME280;17749;51.962;8.560;2023-07-16T09:38:29;99801.25;;;24.88;79.39
31096;BME280;17749;51.962;8.560;2023-07-16T09:40:57;99797.00;;;24.86;79.01
31096;BME280;17749;51.962;8.560;2023-07-16T09:43:24;99797.88;;;24.60;77.99
31096;BME280;17749;51.962;8.560;2023-07-16T09:45:51;99790.09;;;24.65;79.13
31096;BME280;17749;51.962;8.560;2023-07-16T09:48:19;99805.66;;;24.81;77.16
31096;BME280;17749;51.962;8.560;2023-07-16T09:50:49;99798.41;;;24.90;78.86
31096;BME280;17749;51.962;8.560;2023-07-16T09:53:18;99796.97;;;25.12;79.46
31096;BME280;17749;51.962;8.560;2023-07-16T09:55:45;99804.75;;;25.33;75.08
31096;BME280;17749;51.962;8.560;2023-07-16T09:58:13;99788.94;;;25.36;75.14
31096;BME280;17749;51.962;8.560;2023-07-16T10:00:42;99796.44;;;25.34;73.97
31096;BME280;17749;51.962;8.560;2023-07-16T10:03:09;99809.19;;;25.00;75.77
31096;BME280;17749;51.962;8.560;2023-07-16T10:05:37;99804.25;;;25.29;75.53
31096;BME280;17749;51.962;8.560;2023-07-16T10:08:04;99805.94;;;25.30;72.76
31096;BME280;17749;51.962;8.560;2023-07-16T10:10:42;99803.59;;;25.35;75.21
31096;BME280;17749;51.962;8.560;2023-07-16T10:13:11;99795.81;;;25.57;74.51
31096;BME280;17749;51.962;8.560;2023-07-16T10:15:38;99800.31;;;25.74;75.03
31096;BME280;17749;51.962;8.560;2023-07-16T10:18:06;99810.75;;;25.87;74.75
31096;BME280;17749;51.962;8.560;2023-07-16T10:20:34;99793.72;;;26.01;73.23
31096;BME280;17749;51.962;8.560;2023-07-16T10:23:10;99808.59;;;26.23;73.45
31096;BME280;17749;51.962;8.560;2023-07-16T10:25:38;99819.53;;;26.56;72.51
31096;BME280;17749;51.962;8.560;2023-07-16T10:28:06;99812.00;;;26.42;70.15
31096;BME280;17749;51.962;8.560;2023-07-16T10:30:33;99828.53;;;26.16;70.58
31096;BME280;17749;51.962;8.560;2023-07-16T10:33:11;99816.72;;;25.91;71.84
31096;BME280;17749;51.962;8.560;2023-07-16T10:35:44;99819.81;;;26.04;72.54
31096;BME280;17749;51.962;8.560;2023-07-16T10:38:11;99815.25;;;26.54;72.85
31096;BME280;17749;51.962;8.560;2023-07-16T10:40:43;99816.94;;;26.87;71.69
31096;BME280;17749;51.962;8.560;2023-07-16T10:43:10;99829.72;;;26.95;69.61
31096;BME280;17749;51.962;8.560;2023-07-16T10:45:40;99833.53;;;26.78;69.46
31096;BME280;17749;51.962;8.560;2023-07-16T10:48:08;99825.97;;;26.80;68.17
31096;BME280;17749;51.962;8.560;2023-07-16T10:50:35;99829.22;;;26.92;70.81
31096;BME280;17749;51.962;8.560;2023-07-16T10:53:03;99834.16;;;27.04;68.73
31096;BME280;17749;51.962;8.560;2023-07-16T10:55:30;99846.06;;;27.11;69.46
31096;BME280;17749;51.962;8.560;2023-07-16T10:58:05;99837.56;;;26.98;67.63
31096;BME280;17749;51.962;8.560;2023-07-16T11:00:36;99839.22;;;27.16;67.15
31096;BME280;17749;51.962;8.560;2023-07-16T11:03:03;99840.56;;;27.36;68.54
31096;BME280;17749;51.962;8.560;2023-07-16T11:05:30;99848.63;;;27.29;68.47
31096;BME280;17749;51.962;8.560;2023-07-16T11:07:58;99843.72;;;27.00;65.61
31096;BME280;17749;51.962;8.560;2023-07-16T11:10:27;99837.91;;;27.03;67.54
31096;BME280;17749;51.962;8.560;2023-07-16T11:12:55;99841.31;;;27.05;67.29
31096;BME280;17749;51.962;8.560;2023-07-16T11:15:35;99833.09;;;27.14;66.73
31096;BME280;17749;51.962;8.560;2023-07-16T11:18:12;99834.50;;;26.85;65.36
31096;BME280;17749;51.962;8.560;2023-07-16T11:20:41;99831.31;;;26.73;66.79
31096;BME280;17749;51.962;8.560;2023-07-16T11:23:10;99825.97;;;26.88;68.08
31096;BME280;17749;51.962;8.560;2023-07-16T11:25:37;99826.16;;;26.86;67.43
31096;BME280;17749;51.962;8.560;2023-07-16T11:28:07;99822.16;;;27.14;67.12
31096;BME280;17749;51.962;8.560;2023-07-16T11:30:34;99833.09;;;27.22;66.14
31096;BME280;17749;51.962;8.560;2023-07-16T11:33:10;99833.97;;;27.22;66.72
31096;BME280;17749;51.962;8.560;2023-07-16T11:35:37;99829.69;;;27.20;65.44
31096;BME280;17749;51.962;8.560;2023-07-16T11:38:13;99834.09;;;27.29;66.56
31096;BME280;17749;51.962;8.560;2023-07-16T11:40:40;99840.25;;;27.31;66.55
31096;BME280;17749;51.962;8.560;2023-07-16T11:43:18;99838.84;;;27.43;66.52
31096;BME280;17749;51.962;8.560;2023-07-16T11:45:49;99842.72;;;27.57;64.96
31096;BME280;17749;51.962;8.560;2023-07-16T11:48:16;99846.94;;;27.68;64.16
31096;BME280;17749;51.962;8.560;2023-07-16T11:50:48;99845.84;;;27.38;64.37
31096;BME280;17749;51.962;8.560;2023-07-16T11:53:18;99845.22;;;27.27;65.16
31096;BME280;17749;51.962;8.560;2023-07-16T11:55:54;99834.78;;;27.31;65.41
31096;BME280;17749;51.962;8.560;2023-07-16T11:58:34;99839.25;;;27.24;63.80
31096;BME280;17749;51.962;8.560;2023-07-16T12:01:08;99835.22;;;27.43;65.62
31096;BME280;17749;51.962;8.560;2023-07-16T12:03:46;99852.06;;;27.63;64.61
31096;BME280;17749;51.962;8.560;2023-07-16T12:06:20;99839.50;;;27.45;63.80
31096;BME280;17749;51.962;8.560;2023-07-16T12:11:51;99844.53;;;27.09;64.77
31096;BME280;17749;51.962;8.560;2023-07-16T12:14:18;99842.88;;;27.00;62.99
31096;BME280;17749;51.962;8.560;2023-07-16T12:16:51;99841.50;;;27.04;64.23
31096;BME280;17749;51.962;8.560;2023-07-16T12:19:26;99848.19;;;26.77;62.28
31096;BME280;17749;51.962;8.560;2023-07-16T12:21:59;99839.84;;;26.78;63.89
31096;BME280;17749;51.962;8.560;2023-07-16T12:24:38;99836.56;;;26.91;65.12
31096;BME280;17749;51.962;8.560;2023-07-16T12:27:19;99851.41;;;26.97;64.20
31096;BME280;17749;51.962;8.560;2023-07-16T12:29:59;99851.44;;;26.88;62.40
31096;BME280;17749;51.962;8.560;2023-07-16T12:32:30;99848.38;;;26.83;63.78
31096;BME280;17749;51.962;8.560;2023-07-16T12:35:15;99840.69;;;26.71;63.74
31096;BME280;17749;51.962;8.560;2023-07-16T12:37:43;99845.47;;;26.69;64.76
31096;BME280;17749;51.962;8.560;2023-07-16T12:40:25;99848.16;;;26.93;64.72
31096;BME280;17749;51.962;8.560;2023-07-16T12:43:04;99850.19;;;27.07;62.39
31096;BME280;17749;51.962;8.560;2023-07-16T12:45:43;99855.84;;;26.98;63.53
31096;BME280;17749;51.962;8.560;2023-07-16T12:48:28;99854.81;;;27.07;62.83
31096;BME280;17749;51.962;8.560;2023-07-16T12:50:55;99863.88;;;26.99;63.57
31096;BME280;17749;51.962;8.560;2023-07-16T12:53:24;99869.34;;;26.75;62.74
31096;BME280;17749;51.962;8.560;2023-07-16T12:55:54;99861.16;;;26.91;65.37
31096;BME280;17749;51.962;8.560;2023-07-16T12:58:35;99863.91;;;26.83;62.60
31096;BME280;17749;51.962;8.560;2023-07-16T13:01:03;99854.50;;;26.94;64.56
31096;BME280;17749;51.962;8.560;2023-07-16T13:03:34;99857.88;;;26.96;63.95
31096;BME280;17749;51.962;8.560;2023-07-16T13:06:40;99856.72;;;26.82;63.92
31096;BME280;17749;51.962;8.560;2023-07-16T13:09:17;99851.25;;;26.82;64.45
31096;BME280;17749;51.962;8.560;2023-07-16T13:11:48;99860.44;;;27.05;65.18
31096;BME280;17749;51.962;8.560;2023-07-16T13:14:16;99859.75;;;27.03;63.99
31096;BME280;17749;51.962;8.560;2023-07-16T13:16:46;99865.25;;;26.95;64.61
31096;BME280;17749;51.962;8.560;2023-07-16T13:19:20;99865.25;;;26.79;64.36
31096;BME280;17749;51.962;8.560;2023-07-16T13:21:49;99879.28;;;26.76;65.08
31096;BME280;17749;51.962;8.560;2023-07-16T13:24:22;99878.94;;;26.79;64.73
31096;BME280;17749;51.962;8.560;2023-07-16T13:26:52;99876.16;;;26.95;64.78
31096;BME280;17749;51.962;8.560;2023-07-16T13:29:34;99869.31;;;27.16;65.18
31096;BME280;17749;51.962;8.560;2023-07-16T13:32:02;99874.44;;;27.02;63.31
31096;BME280;17749;51.962;8.560;2023-07-16T13:34:38;99874.44;;;27.02;63.14
31096;BME280;17749;51.962;8.560;2023-07-16T13:37:37;99876.88;;;26.81;63.82
31096;BME280;17749;51.962;8.560;2023-07-16T13:40:15;99870.72;;;26.87;64.44
31096;BME280;17749;51.962;8.560;2023-07-16T13:42:51;99872.75;;;26.93;62.46
31096;BME280;17749;51.962;8.560;2023-07-16T13:45:27;99869.34;;;26.91;63.63
31096;BME280;17749;51.962;8.560;2023-07-16T13:48:00;99875.50;;;27.01;64.46
31096;BME280;17749;51.962;8.560;2023-07-16T13:51:03;99880.94;;;26.93;65.49
31096;BME280;17749;51.962;8.560;2023-07-16T13:53:51;99874.47;;;26.70;64.74
31096;BME280;17749;51.962;8.560;2023-07-16T13:56:21;99871.75;;;26.78;63.75
31096;BME280;17749;51.962;8.560;2023-07-16T13:58:57;99883.69;;;27.01;65.65
31096;BME280;17749;51.962;8.560;2023-07-16T14:01:30;99883.69;;;27.01;63.82
31096;BME280;17749;51.962;8.560;2023-07-16T14:04:14;99887.97;;;26.79;64.30
31096;BME280;17749;51.962;8.560;2023-07-16T14:06:41;99877.88;;;26.80;64.52
31096;BME280;17749;51.962;8.560;2023-07-16T14:09:11;99884.72;;;26.84;64.74
31096;BME280;17749;51.962;8.560;2023-07-16T14:11:41;99885.06;;;26.89;64.73
31096;BME280;17749;51.962;8.560;2023-07-16T14:14:22;99866.28;;;26.86;65.63
31096;BME280;17749;51.962;8.560;2023-07-16T14:16:52;99874.84;;;26.83;65.60
31096;BME280;17749;51.962;8.560;2023-07-16T14:19:23;99876.88;;;26.81;65.38
31096;BME280;17749;51.962;8.560;2023-07-16T14:22:02;99886.75;;;26.90;64.32
31096;BME280;17749;51.962;8.560;2023-07-16T14:24:43;99888.81;;;26.80;65.24
31096;BME280;17749;51.962;8.560;2023-07-16T14:27:18;99880.28;;;26.99;67.09
31096;BME280;17749;51.962;8.560;2023-07-16T14:29:50;99889.13;;;26.93;64.43
31096;BME280;17749;51.962;8.560;2023-07-16T14:32:34;99888.28;;;27.01;65.27
31096;BME280;17749;51.962;8.560;2023-07-16T14:35:04;99894.44;;;27.19;66.02
31096;BME280;17749;51.962;8.560;2023-07-16T14:37:41;99884.19;;;27.21;65.75
31096;BME280;17749;51.962;8.560;2023-07-16T14:40:17;99886.41;;;27.01;65.38
31096;BME280;17749;51.962;8.560;2023-07-16T14:42:52;99893.25;;;26.97;64.90
31096;BME280;17749;51.962;8.560;2023-07-16T14:45:21;99880.28;;;26.99;65.75
31096;BME280;17749;51.962;8.560;2023-07-16T14:47:53;99875.81;;;27.06;65.85
31096;BME280;17749;51.962;8.560;2023-07-16T14:50:20;99872.72;;;27.26;66.56
31096;BME280;17749;51.962;8.560;2023-07-16T14:52:47;99880.56;;;27.29;65.72
31096;BME280;17749;51.962;8.560;2023-07-16T14:55:14;99881.28;;;27.23;66.24
31096;BME280;17749;51.962;8.560;2023-07-16T14:57:43;99875.06;;;27.37;66.97
31096;BME280;17749;51.962;8.560;2023-07-16T15:00:24;99879.84;;;27.35;64.66
31096;BME280;17749;51.962;8.560;2023-07-16T15:02:53;99879.84;;;27.35;65.83
31096;BME280;17749;51.962;8.560;2023-07-16T15:05:33;99885.31;;;27.35;65.38
31096;BME280;17749;51.962;8.560;2023-07-16T15:08:00;99884.69;;;27.25;63.33
31096;BME280;17749;51.962;8.560;2023-07-16T15:10:27;99880.75;;;27.19;63.43
31096;BME280;17749;51.962;8.560;2023-07-16T15:13:02;99885.53;;;27.09;62.44
31096;BME280;17749;51.962;8.560;2023-07-16T15:15:32;99876.53;;;26.92;63.90
31096;BME280;17749;51.962;8.560;2023-07-16T15:18:00;99888.13;;;26.94;65.13
31096;BME280;17749;51.962;8.560;2023-07-16T15:20:42;99877.53;;;26.75;63.78
31096;BME280;17749;51.962;8.560;2023-07-16T15:23:22;99868.38;;;26.59;63.93
31096;BME280;17749;51.962;8.560;2023-07-16T15:26:06;99877.19;;;26.45;62.97
31096;BME280;17749;51.962;8.560;2023-07-16T15:28:55;99871.88;;;26.35;65.52
31096;BME280;17749;51.962;8.560;2023-07-16T15:31:22;99869.69;;;26.47;65.55
31096;BME280;17749;51.962;8.560;2023-07-16T15:33:54;99875.34;;;26.54;64.01
31096;BME280;17749;51.962;8.560;2023-07-16T15:36:29;99871.94;;;26.60;64.99
31096;BME280;17749;51.962;8.560;2023-07-16T15:39:14;99865.94;;;26.64;63.65
31096;BME280;17749;51.962;8.560;2023-07-16T15:41:41;99869.72;;;26.55;64.00
31096;BME280;17749;51.962;8.560;2023-07-16T15:44:09;99874.44;;;26.37;63.39
31096;BME280;17749;51.962;8.560;2023-07-16T15:46:36;99872.72;;;26.19;64.66
31096;BME280;17749;51.962;8.560;2023-07-16T15:49:11;99883.59;;;26.03;65.04
31096;BME280;17749;51.962;8.560;2023-07-16T15:51:40;99877.78;;;25.98;64.46
31096;BME280;17749;51.962;8.560;2023-07-16T15:54:37;99883.22;;;25.90;64.66
31096;BME280;17749;51.962;8.560;2023-07-16T15:57:17;99886.97;;;25.89;65.93
31096;BME280;17749;51.962;8.560;2023-07-16T15:59:48;99880.44;;;25.82;66.52
31096;BME280;17749;51.962;8.560;2023-07-16T16:02:18;99885.44;;;25.86;66.56
31096;BME280;17749;51.962;8.560;2023-07-16T16:04:45;99883.28;;;25.72;65.84
31096;BME280;17749;51.962;8.560;2023-07-16T16:07:18;99877.31;;;25.68;66.57
31096;BME280;17749;51.962;8.560;2023-07-16T16:09:46;99880.78;;;25.78;66.80
31096;BME280;17749;51.962;8.560;2023-07-16T16:12:19;99871.94;;;25.85;67.54
31096;BME280;17749;51.962;8.560;2023-07-16T16:15:02;99880.97;;;25.85;67.31
31096;BME280;17749;51.962;8.560;2023-07-16T16:17:38;99878.06;;;25.78;66.12
31096;BME280;17749;51.962;8.560;2023-07-16T16:20:22;99880.63;;;25.46;65.65
31096;BME280;17749;51.962;8.560;2023-07-16T16:23:04;99878.19;;;25.34;66.90
31096;BME280;17749;51.962;8.560;2023-07-16T16:25:31;99884.31;;;25.28;66.80
31096;BME280;17749;51.962;8.560;2023-07-16T16:28:02;99881.59;;;25.10;67.05
31096;BME280;17749;51.962;8.560;2023-07-16T16:30:40;99880.75;;;25.10;66.27
31096;BME280;17749;51.962;8.560;2023-07-16T16:33:27;99884.16;;;25.12;66.83
31096;BME280;17749;51.962;8.560;2023-07-16T16:36:08;99882.59;;;25.09;66.36
31096;BME280;17749;51.962;8.560;2023-07-16T16:39:12;99873.22;;;25.04;67.07
31096;BME280;17749;51.962;8.560;2023-07-16T16:41:52;99886.41;;;24.90;67.74
31096;BME280;17749;51.962;8.560;2023-07-16T16:44:20;99884.84;;;24.88;68.22
31096;BME280;17749;51.962;8.560;2023-07-16T16:46:53;99878.63;;;24.78;68.49
31096;BME280;17749;51.962;8.560;2023-07-16T16:49:23;99888.09;;;24.65;69.14
31096;BME280;17749;51.962;8.560;2023-07-16T16:52:11;99885.00;;;24.60;69.01
31096;BME280;17749;51.962;8.560;2023-07-16T16:54:38;99891.59;;;24.58;70.25
31096;BME280;17749;51.962;8.560;2023-07-16T16:57:17;99888.69;;;24.59;69.26
31096;BME280;17749;51.962;8.560;2023-07-16T16:59:44;99884.50;;;24.65;70.13
31096;BME280;17749;51.962;8.560;2023-07-16T17:02:12;99873.59;;;24.65;70.82
31096;BME280;17749;51.962;8.560;2023-07-16T17:04:39;99872.59;;;24.66;70.22
31096;BME280;17749;51.962;8.560;2023-07-16T17:07:18;99881.16;;;24.71;70.57
31096;BME280;17749;51.962;8.560;2023-07-16T17:09:52;99878.44;;;24.71;70.68
31096;BME280;17749;51.962;8.560;2023-07-16T17:12:19;99878.84;;;24.58;69.42
31096;BME280;17749;51.962;8.560;2023-07-16T17:14:46;99877.59;;;24.53;70.79
31096;BME280;17749;51.962;8.560;2023-07-16T17:17:14;99878.22;;;24.46;71.50
31096;BME280;17749;51.962;8.560;2023-07-16T17:19:41;99872.78;;;24.46;71.62
31096;BME280;17749;51.962;8.560;2023-07-16T17:22:08;99881.22;;;24.43;71.53
31096;BME280;17749;51.962;8.560;2023-07-16T17:24:35;99884.25;;;24.40;72.14
31096;BME280;17749;51.962;8.560;2023-07-16T17:27:03;99890.00;;;24.37;71.57
31096;BME280;17749;51.962;8.560;2023-07-16T17:29:30;99881.16;;;24.35;72.61
31096;BME280;17749;51.962;8.560;2023-07-16T17:31:57;99887.13;;;24.39;72.11
31096;BME280;17749;51.962;8.560;2023-07-16T17:34:24;99890.13;;;24.45;72.93
31096;BME280;17749;51.962;8.560;2023-07-16T17:36:50;99878.22;;;24.46;72.43
31096;BME280;17749;51.962;8.560;2023-07-16T17:39:17;99896.84;;;24.41;72.06
31096;BME280;17749;51.962;8.560;2023-07-16T17:41:44;99896.84;;;24.41;73.00
31096;BME280;17749;51.962;8.560;2023-07-16T17:44:11;99897.88;;;24.40;72.84
31096;BME280;17749;51.962;8.560;2023-07-16T17:46:39;99897.47;;;24.35;73.35
31096;BME280;17749;51.962;8.560;2023-07-16T17:49:06;99898.78;;;24.31;72.81
31096;BME280;17749;51.962;8.560;2023-07-16T17:51:32;99906.88;;;24.23;72.96
31096;BME280;17749;51.962;8.560;2023-07-16T17:53:59;99921.09;;;24.17;72.70
31096;BME280;17749;51.962;8.560;2023-07-16T17:56:27;99905.69;;;24.08;72.92
31096;BME280;17749;51.962;8.560;2023-07-16T17:58:54;99907.41;;;24.09;73.48
31096;BME280;17749;51.962;8.560;2023-07-16T18:01:20;99903.66;;;24.10;74.98
31096;BME280;17749;51.962;8.560;2023-07-16T18:03:51;99905.41;;;24.11;75.37
31096;BME280;17749;51.962;8.560;2023-07-16T18:06:21;99909.41;;;24.06;75.86
31096;BME280;17749;51.962;8.560;2023-07-16T18:08:48;99913.75;;;23.99;75.78
31096;BME280;17749;51.962;8.560;2023-07-16T18:11:15;99915.22;;;23.94;76.77
31096;BME280;17749;51.962;8.560;2023-07-16T18:13:42;99914.19;;;23.77;74.64
31096;BME280;17749;51.962;8.560;2023-07-16T18:16:09;99913.66;;;23.63;75.18
31096;BME280;17749;51.962;8.560;2023-07-16T18:18:36;99903.66;;;23.54;75.70
31096;BME280;17749;51.962;8.560;2023-07-16T18:21:03;99909.50;;;23.32;74.09
31096;BME280;17749;51.962;8.560;2023-07-16T18:23:46;99908.94;;;23.18;73.80
31096;BME280;17749;51.962;8.560;2023-07-16T18:26:13;99905.81;;;23.13;74.84